Aviation Digital Data Service (ADDS)

Output produced by METARs form (1718 UTC 23 September 2020)
found at http://aviationweather.gov/metar/data/
 
KCLL 231441Z 2315/2412 35013KT P6SM OVC005 
     FM231600 35013G19KT P6SM BKN005 OVC010 
     FM240000 36008KT P6SM OVC015 
     FM240500 36005KT P6SM SCT015 BKN050